sensor_id;sensor_type;location;lat;lon;timestamp;P1;durP1;ratioP1;P2;durP2;ratioP2
18090;SDS011;9172;49.948;9.208;2023-04-20T00:01:45;4.83;;;1.80;;
18090;SDS011;9172;49.948;9.208;2023-04-20T00:04:15;3.83;;;2.00;;
18090;SDS011;9172;49.948;9.208;2023-04-20T00:06:43;2.43;;;1.77;;
18090;SDS011;9172;49.948;9.208;2023-04-20T00:09:12;3.20;;;2.20;;
18090;SDS011;9172;49.948;9.208;2023-04-20T00:11:41;3.13;;;1.90;;
18090;SDS011;9172;49.948;9.208;2023-04-20T00:14:12;4.10;;;1.80;;
18090;SDS011;9172;49.948;9.208;2023-04-20T00:16:41;2.80;;;1.80;;
18090;SDS011;9172;49.948;9.208;2023-04-20T00:19:10;7.50;;;2.47;;
18090;SDS011;9172;49.948;9.208;2023-04-20T00:21:41;4.47;;;2.00;;
18090;SDS011;9172;49.948;9.208;2023-04-20T00:24:09;5.73;;;1.87;;
18090;SDS011;9172;49.948;9.208;2023-04-20T00:26:38;8.20;;;2.33;;
18090;SDS011;9172;49.948;9.208;2023-04-20T00:29:08;2.57;;;1.70;;
18090;SDS011;9172;49.948;9.208;2023-04-20T00:31:37;5.33;;;2.30;;
18090;SDS011;9172;49.948;9.208;2023-04-20T00:34:07;5.57;;;2.00;;
18090;SDS011;9172;49.948;9.208;2023-04-20T00:36:35;4.73;;;2.00;;
18090;SDS011;9172;49.948;9.208;2023-04-20T00:39:04;4.40;;;2.50;;
18090;SDS011;9172;49.948;9.208;2023-04-20T00:41:32;4.57;;;2.20;;
18090;SDS011;9172;49.948;9.208;2023-04-20T00:44:01;6.90;;;2.53;;
18090;SDS011;9172;49.948;9.208;2023-04-20T00:46:31;6.43;;;2.30;;
18090;SDS011;9172;49.948;9.208;2023-04-20T00:49:00;8.07;;;2.70;;
18090;SDS011;9172;49.948;9.208;2023-04-20T00:51:29;3.40;;;2.27;;
18090;SDS011;9172;49.948;9.208;2023-04-20T00:53:58;6.63;;;2.57;;
18090;SDS011;9172;49.948;9.208;2023-04-20T00:56:27;5.47;;;2.60;;
18090;SDS011;9172;49.948;9.208;2023-04-20T00:58:56;5.17;;;2.90;;
18090;SDS011;9172;49.948;9.208;2023-04-20T01:01:26;8.57;;;2.50;;
18090;SDS011;9172;49.948;9.208;2023-04-20T01:03:54;6.47;;;2.50;;
18090;SDS011;9172;49.948;9.208;2023-04-20T01:06:23;3.67;;;2.27;;
18090;SDS011;9172;49.948;9.208;2023-04-20T01:08:53;4.23;;;2.40;;
18090;SDS011;9172;49.948;9.208;2023-04-20T01:11:21;4.00;;;2.20;;
18090;SDS011;9172;49.948;9.208;2023-04-20T01:13:50;5.93;;;2.40;;
18090;SDS011;9172;49.948;9.208;2023-04-20T01:16:19;6.00;;;2.30;;
18090;SDS011;9172;49.948;9.208;2023-04-20T01:18:49;4.93;;;2.30;;
18090;SDS011;9172;49.948;9.208;2023-04-20T01:21:18;4.23;;;2.00;;
18090;SDS011;9172;49.948;9.208;2023-04-20T01:23:48;2.70;;;2.00;;
18090;SDS011;9172;49.948;9.208;2023-04-20T01:26:18;4.20;;;2.37;;
18090;SDS011;9172;49.948;9.208;2023-04-20T01:28:48;5.53;;;2.47;;
18090;SDS011;9172;49.948;9.208;2023-04-20T01:31:17;6.27;;;2.67;;
18090;SDS011;9172;49.948;9.208;2023-04-20T01:33:45;6.27;;;2.50;;
18090;SDS011;9172;49.948;9.208;2023-04-20T01:36:14;3.80;;;2.30;;
18090;SDS011;9172;49.948;9.208;2023-04-20T01:38:43;3.87;;;2.47;;
18090;SDS011;9172;49.948;9.208;2023-04-20T01:41:11;5.13;;;2.27;;
18090;SDS011;9172;49.948;9.208;2023-04-20T01:43:40;6.63;;;2.60;;
18090;SDS011;9172;49.948;9.208;2023-04-20T01:46:09;3.37;;;2.40;;
18090;SDS011;9172;49.948;9.208;2023-04-20T01:48:39;6.70;;;2.20;;
18090;SDS011;9172;49.948;9.208;2023-04-20T01:51:07;2.83;;;2.13;;
18090;SDS011;9172;49.948;9.208;2023-04-20T01:53:37;2.83;;;2.00;;
18090;SDS011;9172;49.948;9.208;2023-04-20T01:56:06;14.00;;;2.47;;
18090;SDS011;9172;49.948;9.208;2023-04-20T01:58:35;2.50;;;1.90;;
18090;SDS011;9172;49.948;9.208;2023-04-20T02:01:04;4.57;;;2.40;;
18090;SDS011;9172;49.948;9.208;2023-04-20T02:03:33;5.10;;;2.50;;
18090;SDS011;9172;49.948;9.208;2023-04-20T02:06:02;5.53;;;2.47;;
18090;SDS011;9172;49.948;9.208;2023-04-20T02:08:31;7.07;;;2.50;;
18090;SDS011;9172;49.948;9.208;2023-04-20T02:11:00;3.23;;;2.33;;
18090;SDS011;9172;49.948;9.208;2023-04-20T02:13:29;7.67;;;2.57;;
18090;SDS011;9172;49.948;9.208;2023-04-20T02:15:58;4.20;;;2.03;;
18090;SDS011;9172;49.948;9.208;2023-04-20T02:18:27;3.90;;;2.40;;
18090;SDS011;9172;49.948;9.208;2023-04-20T02:20:57;4.90;;;2.40;;
18090;SDS011;9172;49.948;9.208;2023-04-20T02:23:26;8.00;;;2.70;;
18090;SDS011;9172;49.948;9.208;2023-04-20T02:25:56;3.83;;;2.30;;
18090;SDS011;9172;49.948;9.208;2023-04-20T02:28:25;4.50;;;2.23;;
18090;SDS011;9172;49.948;9.208;2023-04-20T02:30:53;6.60;;;2.33;;
18090;SDS011;9172;49.948;9.208;2023-04-20T02:33:22;5.80;;;2.40;;
18090;SDS011;9172;49.948;9.208;2023-04-20T02:35:50;4.80;;;2.23;;
18090;SDS011;9172;49.948;9.208;2023-04-20T02:38:19;3.03;;;2.23;;
18090;SDS011;9172;49.948;9.208;2023-04-20T02:40:48;7.90;;;2.83;;
18090;SDS011;9172;49.948;9.208;2023-04-20T02:43:17;5.80;;;2.97;;
18090;SDS011;9172;49.948;9.208;2023-04-20T02:45:46;6.10;;;2.47;;
18090;SDS011;9172;49.948;9.208;2023-04-20T02:48:16;5.40;;;2.37;;
18090;SDS011;9172;49.948;9.208;2023-04-20T02:50:44;10.07;;;2.80;;
18090;SDS011;9172;49.948;9.208;2023-04-20T02:53:14;5.27;;;2.00;;
18090;SDS011;9172;49.948;9.208;2023-04-20T02:55:43;8.13;;;2.70;;
18090;SDS011;9172;49.948;9.208;2023-04-20T02:58:11;7.40;;;3.00;;
18090;SDS011;9172;49.948;9.208;2023-04-20T03:00:40;3.47;;;2.47;;
18090;SDS011;9172;49.948;9.208;2023-04-20T03:03:09;4.90;;;2.30;;
18090;SDS011;9172;49.948;9.208;2023-04-20T03:05:38;5.60;;;2.60;;
18090;SDS011;9172;49.948;9.208;2023-04-20T03:08:07;6.27;;;2.20;;
18090;SDS011;9172;49.948;9.208;2023-04-20T03:10:36;4.27;;;2.40;;
18090;SDS011;9172;49.948;9.208;2023-04-20T03:13:06;4.07;;;2.47;;
18090;SDS011;9172;49.948;9.208;2023-04-20T03:15:35;9.70;;;2.73;;
18090;SDS011;9172;49.948;9.208;2023-04-20T03:18:04;5.60;;;2.90;;
18090;SDS011;9172;49.948;9.208;2023-04-20T03:20:34;7.90;;;2.63;;
18090;SDS011;9172;49.948;9.208;2023-04-20T03:23:02;5.53;;;2.70;;
18090;SDS011;9172;49.948;9.208;2023-04-20T03:25:31;4.87;;;2.50;;
18090;SDS011;9172;49.948;9.208;2023-04-20T03:28:00;3.03;;;2.20;;
18090;SDS011;9172;49.948;9.208;2023-04-20T03:30:29;5.50;;;2.40;;
18090;SDS011;9172;49.948;9.208;2023-04-20T03:32:58;5.07;;;2.80;;
18090;SDS011;9172;49.948;9.208;2023-04-20T03:35:27;5.10;;;2.80;;
18090;SDS011;9172;49.948;9.208;2023-04-20T03:37:56;4.07;;;2.40;;
18090;SDS011;9172;49.948;9.208;2023-04-20T03:40:25;6.27;;;2.40;;
18090;SDS011;9172;49.948;9.208;2023-04-20T03:42:55;5.50;;;2.53;;
18090;SDS011;9172;49.948;9.208;2023-04-20T03:45:24;6.60;;;2.83;;
18090;SDS011;9172;49.948;9.208;2023-04-20T03:47:54;6.20;;;2.63;;
18090;SDS011;9172;49.948;9.208;2023-04-20T03:50:23;5.27;;;2.73;;
18090;SDS011;9172;49.948;9.208;2023-04-20T03:52:52;5.10;;;2.70;;
18090;SDS011;9172;49.948;9.208;2023-04-20T03:55:21;5.03;;;2.67;;
18090;SDS011;9172;49.948;9.208;2023-04-20T03:57:50;5.13;;;2.67;;
18090;SDS011;9172;49.948;9.208;2023-04-20T04:00:20;5.10;;;2.97;;
18090;SDS011;9172;49.948;9.208;2023-04-20T04:02:48;7.77;;;2.90;;
18090;SDS011;9172;49.948;9.208;2023-04-20T04:05:19;6.13;;;2.70;;
18090;SDS011;9172;49.948;9.208;2023-04-20T04:07:48;6.13;;;3.33;;
18090;SDS011;9172;49.948;9.208;2023-04-20T04:10:17;4.07;;;2.53;;
18090;SDS011;9172;49.948;9.208;2023-04-20T04:12:46;4.90;;;2.67;;
18090;SDS011;9172;49.948;9.208;2023-04-20T04:15:15;13.57;;;3.63;;
18090;SDS011;9172;49.948;9.208;2023-04-20T04:17:44;7.43;;;2.63;;
18090;SDS011;9172;49.948;9.208;2023-04-20T04:20:14;5.67;;;3.00;;
18090;SDS011;9172;49.948;9.208;2023-04-20T04:22:43;7.27;;;2.90;;
18090;SDS011;9172;49.948;9.208;2023-04-20T04:25:12;4.30;;;2.80;;
18090;SDS011;9172;49.948;9.208;2023-04-20T04:27:42;7.07;;;2.90;;
18090;SDS011;9172;49.948;9.208;2023-04-20T04:30:12;4.90;;;2.50;;
18090;SDS011;9172;49.948;9.208;2023-04-20T04:32:41;7.23;;;3.33;;
18090;SDS011;9172;49.948;9.208;2023-04-20T04:35:11;5.93;;;2.53;;
18090;SDS011;9172;49.948;9.208;2023-04-20T04:37:40;5.77;;;2.50;;
18090;SDS011;9172;49.948;9.208;2023-04-20T04:40:10;9.60;;;2.97;;
18090;SDS011;9172;49.948;9.208;2023-04-20T04:42:38;5.83;;;2.30;;
18090;SDS011;9172;49.948;9.208;2023-04-20T04:45:08;5.03;;;2.50;;
18090;SDS011;9172;49.948;9.208;2023-04-20T04:47:48;6.10;;;2.60;;
18090;SDS011;9172;49.948;9.208;2023-04-20T04:50:19;5.73;;;2.63;;
18090;SDS011;9172;49.948;9.208;2023-04-20T04:52:47;3.70;;;2.50;;
18090;SDS011;9172;49.948;9.208;2023-04-20T04:55:16;4.50;;;2.60;;
18090;SDS011;9172;49.948;9.208;2023-04-20T04:57:45;3.80;;;2.60;;
18090;SDS011;9172;49.948;9.208;2023-04-20T05:00:15;5.33;;;3.00;;
18090;SDS011;9172;49.948;9.208;2023-04-20T05:02:47;4.73;;;2.60;;
18090;SDS011;9172;49.948;9.208;2023-04-20T05:05:16;5.90;;;2.50;;
18090;SDS011;9172;49.948;9.208;2023-04-20T05:07:45;7.00;;;3.07;;
18090;SDS011;9172;49.948;9.208;2023-04-20T05:10:14;11.73;;;2.67;;
18090;SDS011;9172;49.948;9.208;2023-04-20T05:12:44;7.37;;;3.50;;
18090;SDS011;9172;49.948;9.208;2023-04-20T05:15:14;14.07;;;4.70;;
18090;SDS011;9172;49.948;9.208;2023-04-20T05:17:43;9.63;;;4.77;;
18090;SDS011;9172;49.948;9.208;2023-04-20T05:20:14;9.97;;;3.50;;
18090;SDS011;9172;49.948;9.208;2023-04-20T05:22:52;4.10;;;2.60;;
18090;SDS011;9172;49.948;9.208;2023-04-20T05:25:20;7.00;;;3.13;;
18090;SDS011;9172;49.948;9.208;2023-04-20T05:27:50;6.80;;;3.00;;
18090;SDS011;9172;49.948;9.208;2023-04-20T05:30:19;7.03;;;2.57;;
18090;SDS011;9172;49.948;9.208;2023-04-20T05:32:48;8.27;;;3.20;;
18090;SDS011;9172;49.948;9.208;2023-04-20T05:35:18;6.93;;;2.60;;
18090;SDS011;9172;49.948;9.208;2023-04-20T05:37:47;5.73;;;2.53;;
18090;SDS011;9172;49.948;9.208;2023-04-20T05:40:16;5.90;;;2.97;;
18090;SDS011;9172;49.948;9.208;2023-04-20T05:42:45;12.10;;;2.87;;
18090;SDS011;9172;49.948;9.208;2023-04-20T05:45:13;5.13;;;2.60;;
18090;SDS011;9172;49.948;9.208;2023-04-20T05:47:51;3.63;;;2.47;;
18090;SDS011;9172;49.948;9.208;2023-04-20T05:50:20;6.77;;;3.27;;
18090;SDS011;9172;49.948;9.208;2023-04-20T05:52:49;5.13;;;2.83;;
18090;SDS011;9172;49.948;9.208;2023-04-20T05:55:19;5.83;;;2.70;;
18090;SDS011;9172;49.948;9.208;2023-04-20T05:57:48;5.20;;;3.53;;
18090;SDS011;9172;49.948;9.208;2023-04-20T06:00:19;8.07;;;2.97;;
18090;SDS011;9172;49.948;9.208;2023-04-20T06:02:48;4.77;;;3.07;;
18090;SDS011;9172;49.948;9.208;2023-04-20T06:05:17;6.70;;;3.07;;
18090;SDS011;9172;49.948;9.208;2023-04-20T06:07:47;4.93;;;2.77;;
18090;SDS011;9172;49.948;9.208;2023-04-20T06:10:15;6.90;;;2.93;;
18090;SDS011;9172;49.948;9.208;2023-04-20T06:12:45;6.87;;;3.00;;
18090;SDS011;9172;49.948;9.208;2023-04-20T06:15:14;5.33;;;3.27;;
18090;SDS011;9172;49.948;9.208;2023-04-20T06:17:44;7.77;;;3.10;;
18090;SDS011;9172;49.948;9.208;2023-04-20T06:20:12;6.83;;;2.77;;
18090;SDS011;9172;49.948;9.208;2023-04-20T06:22:42;4.33;;;2.53;;
18090;SDS011;9172;49.948;9.208;2023-04-20T06:25:11;3.90;;;3.10;;
18090;SDS011;9172;49.948;9.208;2023-04-20T06:27:41;5.13;;;2.73;;
18090;SDS011;9172;49.948;9.208;2023-04-20T06:30:10;5.27;;;3.13;;
18090;SDS011;9172;49.948;9.208;2023-04-20T06:32:41;6.07;;;2.77;;
18090;SDS011;9172;49.948;9.208;2023-04-20T06:35:09;6.20;;;3.37;;
18090;SDS011;9172;49.948;9.208;2023-04-20T06:37:38;6.03;;;3.10;;
18090;SDS011;9172;49.948;9.208;2023-04-20T06:40:07;7.57;;;3.43;;
18090;SDS011;9172;49.948;9.208;2023-04-20T06:42:36;5.23;;;3.00;;
18090;SDS011;9172;49.948;9.208;2023-04-20T06:45:06;5.10;;;2.70;;
18090;SDS011;9172;49.948;9.208;2023-04-20T06:47:35;7.87;;;3.30;;
18090;SDS011;9172;49.948;9.208;2023-04-20T06:50:05;6.47;;;4.00;;
18090;SDS011;9172;49.948;9.208;2023-04-20T06:52:35;6.73;;;4.00;;
18090;SDS011;9172;49.948;9.208;2023-04-20T06:55:05;5.90;;;4.00;;
18090;SDS011;9172;49.948;9.208;2023-04-20T06:57:35;8.90;;;4.47;;
18090;SDS011;9172;49.948;9.208;2023-04-20T07:00:06;8.67;;;3.63;;
18090;SDS011;9172;49.948;9.208;2023-04-20T07:02:41;8.20;;;4.67;;
18090;SDS011;9172;49.948;9.208;2023-04-20T07:05:11;9.57;;;4.60;;
18090;SDS011;9172;49.948;9.208;2023-04-20T07:07:41;5.73;;;4.20;;
18090;SDS011;9172;49.948;9.208;2023-04-20T07:10:10;9.50;;;4.70;;
18090;SDS011;9172;49.948;9.208;2023-04-20T07:12:40;8.77;;;4.17;;
18090;SDS011;9172;49.948;9.208;2023-04-20T07:15:10;7.73;;;4.60;;
18090;SDS011;9172;49.948;9.208;2023-04-20T07:17:39;5.90;;;4.00;;
18090;SDS011;9172;49.948;9.208;2023-04-20T07:20:08;14.67;;;4.30;;
18090;SDS011;9172;49.948;9.208;2023-04-20T07:22:38;6.97;;;4.53;;
18090;SDS011;9172;49.948;9.208;2023-04-20T07:25:07;7.57;;;4.20;;
18090;SDS011;9172;49.948;9.208;2023-04-20T07:27:36;10.87;;;4.50;;
18090;SDS011;9172;49.948;9.208;2023-04-20T07:30:07;6.13;;;4.03;;
18090;SDS011;9172;49.948;9.208;2023-04-20T07:32:37;9.47;;;3.90;;
18090;SDS011;9172;49.948;9.208;2023-04-20T07:35:07;7.67;;;4.00;;
18090;SDS011;9172;49.948;9.208;2023-04-20T07:37:36;5.87;;;3.93;;
18090;SDS011;9172;49.948;9.208;2023-04-20T07:40:07;6.83;;;4.13;;
18090;SDS011;9172;49.948;9.208;2023-04-20T07:42:36;7.80;;;4.30;;
18090;SDS011;9172;49.948;9.208;2023-04-20T07:45:06;10.63;;;4.57;;
18090;SDS011;9172;49.948;9.208;2023-04-20T07:47:36;8.20;;;4.23;;
18090;SDS011;9172;49.948;9.208;2023-04-20T07:50:06;5.90;;;3.70;;
18090;SDS011;9172;49.948;9.208;2023-04-20T07:52:35;5.87;;;3.90;;
18090;SDS011;9172;49.948;9.208;2023-04-20T07:55:04;7.87;;;4.10;;
18090;SDS011;9172;49.948;9.208;2023-04-20T07:57:37;7.27;;;3.87;;
18090;SDS011;9172;49.948;9.208;2023-04-20T08:00:07;6.53;;;3.87;;
18090;SDS011;9172;49.948;9.208;2023-04-20T08:02:39;6.80;;;3.70;;
18090;SDS011;9172;49.948;9.208;2023-04-20T08:05:08;5.17;;;3.90;;
18090;SDS011;9172;49.948;9.208;2023-04-20T08:07:37;5.97;;;3.97;;
18090;SDS011;9172;49.948;9.208;2023-04-20T08:10:07;5.43;;;3.50;;
18090;SDS011;9172;49.948;9.208;2023-04-20T08:12:36;6.63;;;3.93;;
18090;SDS011;9172;49.948;9.208;2023-04-20T08:15:06;7.43;;;3.73;;
18090;SDS011;9172;49.948;9.208;2023-04-20T08:17:37;7.23;;;4.30;;
18090;SDS011;9172;49.948;9.208;2023-04-20T08:20:07;9.87;;;3.37;;
18090;SDS011;9172;49.948;9.208;2023-04-20T08:22:36;5.53;;;3.53;;
18090;SDS011;9172;49.948;9.208;2023-04-20T08:25:05;6.17;;;3.93;;
18090;SDS011;9172;49.948;9.208;2023-04-20T08:27:35;7.80;;;3.53;;
18090;SDS011;9172;49.948;9.208;2023-04-20T08:30:05;5.50;;;3.63;;
18090;SDS011;9172;49.948;9.208;2023-04-20T08:32:35;5.03;;;3.60;;
18090;SDS011;9172;49.948;9.208;2023-04-20T08:35:03;7.37;;;3.90;;
18090;SDS011;9172;49.948;9.208;2023-04-20T08:37:33;9.60;;;3.60;;
18090;SDS011;9172;49.948;9.208;2023-04-20T08:40:04;5.40;;;3.47;;
18090;SDS011;9172;49.948;9.208;2023-04-20T08:42:35;6.93;;;3.60;;
18090;SDS011;9172;49.948;9.208;2023-04-20T08:45:05;5.30;;;3.40;;
18090;SDS011;9172;49.948;9.208;2023-04-20T08:47:35;7.33;;;3.80;;
18090;SDS011;9172;49.948;9.208;2023-04-20T08:50:06;5.67;;;3.20;;
18090;SDS011;9172;49.948;9.208;2023-04-20T08:52:36;3.50;;;2.90;;
18090;SDS011;9172;49.948;9.208;2023-04-20T08:55:06;5.93;;;3.33;;
18090;SDS011;9172;49.948;9.208;2023-04-20T08:57:35;8.27;;;3.67;;
18090;SDS011;9172;49.948;9.208;2023-04-20T09:00:06;11.03;;;3.83;;
18090;SDS011;9172;49.948;9.208;2023-04-20T09:02:36;7.60;;;3.27;;
18090;SDS011;9172;49.948;9.208;2023-04-20T09:05:22;6.63;;;3.83;;
18090;SDS011;9172;49.948;9.208;2023-04-20T09:07:53;5.40;;;3.30;;
18090;SDS011;9172;49.948;9.208;2023-04-20T09:10:24;5.10;;;3.30;;
18090;SDS011;9172;49.948;9.208;2023-04-20T09:12:54;5.93;;;3.10;;
18090;SDS011;9172;49.948;9.208;2023-04-20T09:15:23;5.00;;;3.57;;
18090;SDS011;9172;49.948;9.208;2023-04-20T09:17:53;6.47;;;3.50;;
18090;SDS011;9172;49.948;9.208;2023-04-20T09:20:29;5.57;;;3.83;;
18090;SDS011;9172;49.948;9.208;2023-04-20T09:23:09;9.47;;;3.33;;
18090;SDS011;9172;49.948;9.208;2023-04-20T09:25:38;7.60;;;3.33;;
18090;SDS011;9172;49.948;9.208;2023-04-20T09:28:08;9.13;;;3.23;;
18090;SDS011;9172;49.948;9.208;2023-04-20T09:30:38;4.60;;;2.87;;
18090;SDS011;9172;49.948;9.208;2023-04-20T09:33:08;4.47;;;3.00;;
18090;SDS011;9172;49.948;9.208;2023-04-20T09:35:40;5.90;;;2.97;;
18090;SDS011;9172;49.948;9.208;2023-04-20T09:38:10;6.07;;;3.13;;
18090;SDS011;9172;49.948;9.208;2023-04-20T09:40:42;5.93;;;3.70;;
18090;SDS011;9172;49.948;9.208;2023-04-20T09:43:12;4.47;;;2.93;;
18090;SDS011;9172;49.948;9.208;2023-04-20T09:45:45;6.70;;;3.37;;
18090;SDS011;9172;49.948;9.208;2023-04-20T09:48:15;4.57;;;3.23;;
18090;SDS011;9172;49.948;9.208;2023-04-20T09:50:46;6.63;;;3.53;;
18090;SDS011;9172;49.948;9.208;2023-04-20T09:53:15;4.93;;;3.23;;
18090;SDS011;9172;49.948;9.208;2023-04-20T09:55:45;4.67;;;3.10;;
18090;SDS011;9172;49.948;9.208;2023-04-20T09:58:15;5.50;;;2.87;;
18090;SDS011;9172;49.948;9.208;2023-04-20T10:00:45;7.47;;;3.70;;
18090;SDS011;9172;49.948;9.208;2023-04-20T10:03:15;5.90;;;3.07;;
18090;SDS011;9172;49.948;9.208;2023-04-20T10:05:44;5.70;;;3.60;;
18090;SDS011;9172;49.948;9.208;2023-04-20T10:08:14;5.80;;;3.40;;
18090;SDS011;9172;49.948;9.208;2023-04-20T10:10:43;7.23;;;2.80;;
18090;SDS011;9172;49.948;9.208;2023-04-20T10:13:13;5.47;;;2.97;;
18090;SDS011;9172;49.948;9.208;2023-04-20T10:15:44;4.17;;;3.00;;
18090;SDS011;9172;49.948;9.208;2023-04-20T10:18:16;6.60;;;3.33;;
18090;SDS011;9172;49.948;9.208;2023-04-20T10:20:48;4.13;;;2.57;;
18090;SDS011;9172;49.948;9.208;2023-04-20T10:23:17;6.73;;;3.03;;
18090;SDS011;9172;49.948;9.208;2023-04-20T10:25:55;3.67;;;2.70;;
18090;SDS011;9172;49.948;9.208;2023-04-20T10:28:32;3.77;;;2.70;;
18090;SDS011;9172;49.948;9.208;2023-04-20T10:31:06;8.10;;;2.97;;
18090;SDS011;9172;49.948;9.208;2023-04-20T10:33:37;4.10;;;3.00;;
18090;SDS011;9172;49.948;9.208;2023-04-20T10:36:25;4.33;;;3.10;;
18090;SDS011;9172;49.948;9.208;2023-04-20T10:38:56;4.90;;;3.00;;
18090;SDS011;9172;49.948;9.208;2023-04-20T10:41:25;7.63;;;2.77;;
18090;SDS011;9172;49.948;9.208;2023-04-20T10:43:54;4.23;;;2.90;;
18090;SDS011;9172;49.948;9.208;2023-04-20T10:46:24;5.10;;;2.70;;
18090;SDS011;9172;49.948;9.208;2023-04-20T10:48:53;5.53;;;3.17;;
18090;SDS011;9172;49.948;9.208;2023-04-20T10:51:23;8.73;;;3.37;;
18090;SDS011;9172;49.948;9.208;2023-04-20T10:54:02;4.53;;;3.00;;
18090;SDS011;9172;49.948;9.208;2023-04-20T10:56:36;4.87;;;3.10;;
18090;SDS011;9172;49.948;9.208;2023-04-20T10:59:05;8.73;;;3.03;;
18090;SDS011;9172;49.948;9.208;2023-04-20T11:01:34;4.73;;;3.07;;
18090;SDS011;9172;49.948;9.208;2023-04-20T11:04:04;4.37;;;2.83;;
18090;SDS011;9172;49.948;9.208;2023-04-20T11:06:33;6.03;;;2.73;;
18090;SDS011;9172;49.948;9.208;2023-04-20T11:09:02;3.77;;;2.50;;
18090;SDS011;9172;49.948;9.208;2023-04-20T11:11:33;7.87;;;2.63;;
18090;SDS011;9172;49.948;9.208;2023-04-20T11:14:06;6.50;;;2.50;;
18090;SDS011;9172;49.948;9.208;2023-04-20T11:16:36;5.13;;;3.03;;
18090;SDS011;9172;49.948;9.208;2023-04-20T11:19:07;5.53;;;2.93;;
18090;SDS011;9172;49.948;9.208;2023-04-20T11:21:36;4.63;;;3.30;;
18090;SDS011;9172;49.948;9.208;2023-04-20T11:24:16;3.33;;;2.43;;
18090;SDS011;9172;49.948;9.208;2023-04-20T11:26:45;4.00;;;2.40;;
18090;SDS011;9172;49.948;9.208;2023-04-20T11:29:26;4.80;;;3.00;;
18090;SDS011;9172;49.948;9.208;2023-04-20T11:31:59;4.57;;;2.73;;
18090;SDS011;9172;49.948;9.208;2023-04-20T11:34:30;4.67;;;2.47;;
18090;SDS011;9172;49.948;9.208;2023-04-20T11:37:03;3.10;;;2.00;;
18090;SDS011;9172;49.948;9.208;2023-04-20T11:39:33;4.47;;;2.80;;
18090;SDS011;9172;49.948;9.208;2023-04-20T11:42:03;6.40;;;2.77;;
18090;SDS011;9172;49.948;9.208;2023-04-20T11:44:33;8.43;;;2.53;;
18090;SDS011;9172;49.948;9.208;2023-04-20T11:47:02;4.13;;;2.17;;
18090;SDS011;9172;49.948;9.208;2023-04-20T11:49:33;7.27;;;2.70;;
18090;SDS011;9172;49.948;9.208;2023-04-20T11:52:01;6.00;;;2.83;;
18090;SDS011;9172;49.948;9.208;2023-04-20T11:54:31;3.67;;;2.53;;
18090;SDS011;9172;49.948;9.208;2023-04-20T11:57:00;7.63;;;2.73;;
18090;SDS011;9172;49.948;9.208;2023-04-20T11:59:29;5.13;;;2.93;;
18090;SDS011;9172;49.948;9.208;2023-04-20T12:01:58;6.23;;;2.27;;
18090;SDS011;9172;49.948;9.208;2023-04-20T12:04:29;4.47;;;2.90;;
18090;SDS011;9172;49.948;9.208;2023-04-20T12:06:59;4.70;;;2.80;;
18090;SDS011;9172;49.948;9.208;2023-04-20T12:09:29;4.07;;;2.17;;
18090;SDS011;9172;49.948;9.208;2023-04-20T12:12:01;4.60;;;2.47;;
18090;SDS011;9172;49.948;9.208;2023-04-20T12:14:30;3.27;;;2.50;;
18090;SDS011;9172;49.948;9.208;2023-04-20T12:16:59;3.90;;;2.30;;
18090;SDS011;9172;49.948;9.208;2023-04-20T12:19:28;3.83;;;2.67;;
18090;SDS011;9172;49.948;9.208;2023-04-20T12:21:58;3.83;;;2.87;;
18090;SDS011;9172;49.948;9.208;2023-04-20T12:24:26;4.33;;;2.63;;
18090;SDS011;9172;49.948;9.208;2023-04-20T12:26:55;4.03;;;2.33;;
18090;SDS011;9172;49.948;9.208;2023-04-20T12:29:25;3.77;;;2.63;;
18090;SDS011;9172;49.948;9.208;2023-04-20T12:31:56;5.00;;;2.60;;
18090;SDS011;9172;49.948;9.208;2023-04-20T12:34:25;5.03;;;2.60;;
18090;SDS011;9172;49.948;9.208;2023-04-20T12:36:55;4.73;;;2.70;;
18090;SDS011;9172;49.948;9.208;2023-04-20T12:39:24;7.37;;;2.80;;
18090;SDS011;9172;49.948;9.208;2023-04-20T12:44:56;3.77;;;2.70;;
18090;SDS011;9172;49.948;9.208;2023-04-20T12:47:25;3.43;;;2.60;;
18090;SDS011;9172;49.948;9.208;2023-04-20T12:49:54;6.77;;;3.07;;
18090;SDS011;9172;49.948;9.208;2023-04-20T12:52:23;4.37;;;2.40;;
18090;SDS011;9172;49.948;9.208;2023-04-20T12:54:51;5.07;;;2.73;;
18090;SDS011;9172;49.948;9.208;2023-04-20T12:57:20;6.13;;;2.73;;
18090;SDS011;9172;49.948;9.208;2023-04-20T12:59:49;4.33;;;2.40;;
18090;SDS011;9172;49.948;9.208;2023-04-20T13:02:18;3.40;;;2.20;;
18090;SDS011;9172;49.948;9.208;2023-04-20T13:04:47;3.87;;;2.33;;
18090;SDS011;9172;49.948;9.208;2023-04-20T13:07:15;5.27;;;2.70;;
18090;SDS011;9172;49.948;9.208;2023-04-20T13:09:44;6.07;;;2.77;;
18090;SDS011;9172;49.948;9.208;2023-04-20T13:12:13;3.80;;;2.60;;
18090;SDS011;9172;49.948;9.208;2023-04-20T13:14:42;4.27;;;2.47;;
18090;SDS011;9172;49.948;9.208;2023-04-20T13:17:13;3.80;;;2.30;;
18090;SDS011;9172;49.948;9.208;2023-04-20T13:19:41;4.73;;;2.37;;
18090;SDS011;9172;49.948;9.208;2023-04-20T13:22:12;4.03;;;2.60;;
18090;SDS011;9172;49.948;9.208;2023-04-20T13:24:40;3.70;;;2.53;;
18090;SDS011;9172;49.948;9.208;2023-04-20T13:27:11;5.83;;;2.33;;
18090;SDS011;9172;49.948;9.208;2023-04-20T13:29:39;5.70;;;2.57;;
18090;SDS011;9172;49.948;9.208;2023-04-20T13:32:09;4.50;;;2.60;;
18090;SDS011;9172;49.948;9.208;2023-04-20T13:34:37;3.67;;;2.50;;
18090;SDS011;9172;49.948;9.208;2023-04-20T13:37:06;3.43;;;2.50;;
18090;SDS011;9172;49.948;9.208;2023-04-20T13:39:35;4.50;;;2.60;;
18090;SDS011;9172;49.948;9.208;2023-04-20T13:42:03;3.37;;;2.07;;
18090;SDS011;9172;49.948;9.208;2023-04-20T13:44:32;9.40;;;2.30;;
18090;SDS011;9172;49.948;9.208;2023-04-20T13:47:02;4.63;;;2.33;;
18090;SDS011;9172;49.948;9.208;2023-04-20T13:49:31;6.53;;;2.67;;
18090;SDS011;9172;49.948;9.208;2023-04-20T13:51:59;2.87;;;1.90;;
18090;SDS011;9172;49.948;9.208;2023-04-20T13:54:28;2.33;;;1.93;;
18090;SDS011;9172;49.948;9.208;2023-04-20T13:56:57;5.40;;;2.67;;
18090;SDS011;9172;49.948;9.208;2023-04-20T13:59:27;4.07;;;2.30;;
18090;SDS011;9172;49.948;9.208;2023-04-20T14:01:56;5.27;;;2.60;;
18090;SDS011;9172;49.948;9.208;2023-04-20T14:04:25;3.67;;;2.40;;
18090;SDS011;9172;49.948;9.208;2023-04-20T14:06:53;4.23;;;2.83;;
18090;SDS011;9172;49.948;9.208;2023-04-20T14:09:22;5.37;;;3.40;;
18090;SDS011;9172;49.948;9.208;2023-04-20T14:11:53;3.60;;;2.70;;
18090;SDS011;9172;49.948;9.208;2023-04-20T14:14:22;5.97;;;2.80;;
18090;SDS011;9172;49.948;9.208;2023-04-20T14:16:51;3.43;;;2.80;;
18090;SDS011;9172;49.948;9.208;2023-04-20T14:19:20;4.87;;;3.03;;
18090;SDS011;9172;49.948;9.208;2023-04-20T14:21:48;3.67;;;2.40;;
18090;SDS011;9172;49.948;9.208;2023-04-20T14:24:17;4.10;;;2.83;;
18090;SDS011;9172;49.948;9.208;2023-04-20T14:26:46;5.50;;;2.90;;
18090;SDS011;9172;49.948;9.208;2023-04-20T14:29:16;7.40;;;3.30;;
18090;SDS011;9172;49.948;9.208;2023-04-20T14:31:45;5.43;;;2.87;;
18090;SDS011;9172;49.948;9.208;2023-04-20T14:34:14;7.00;;;3.37;;
18090;SDS011;9172;49.948;9.208;2023-04-20T14:36:43;5.50;;;2.90;;
18090;SDS011;9172;49.948;9.208;2023-04-20T14:39:14;8.07;;;3.97;;
18090;SDS011;9172;49.948;9.208;2023-04-20T14:41:44;5.77;;;3.70;;
18090;SDS011;9172;49.948;9.208;2023-04-20T14:44:12;5.97;;;3.60;;
18090;SDS011;9172;49.948;9.208;2023-04-20T14:46:42;3.87;;;2.97;;
18090;SDS011;9172;49.948;9.208;2023-04-20T14:49:12;5.80;;;3.40;;
18090;SDS011;9172;49.948;9.208;2023-04-20T14:51:41;3.97;;;3.30;;
18090;SDS011;9172;49.948;9.208;2023-04-20T14:54:10;4.23;;;2.70;;
18090;SDS011;9172;49.948;9.208;2023-04-20T14:56:39;4.70;;;3.37;;
18090;SDS011;9172;49.948;9.208;2023-04-20T14:59:08;4.20;;;2.87;;
18090;SDS011;9172;49.948;9.208;2023-04-20T15:01:37;4.43;;;3.33;;
18090;SDS011;9172;49.948;9.208;2023-04-20T15:04:06;7.23;;;3.47;;
18090;SDS011;9172;49.948;9.208;2023-04-20T15:06:36;5.23;;;3.40;;
18090;SDS011;9172;49.948;9.208;2023-04-20T15:09:06;5.00;;;3.37;;
18090;SDS011;9172;49.948;9.208;2023-04-20T15:11:35;6.23;;;3.50;;
18090;SDS011;9172;49.948;9.208;2023-04-20T15:14:06;4.67;;;3.20;;
18090;SDS011;9172;49.948;9.208;2023-04-20T15:16:35;5.67;;;3.27;;
18090;SDS011;9172;49.948;9.208;2023-04-20T15:19:03;4.80;;;3.40;;